Latest Weather Observations for Flinders Reef

IDQ60801

Issued at 8:02 pm EST Monday 26 September 2016 (issued every 30 minutes, with the page automatically refreshed every 10 minutes)

About weather observations | Map of weather stations | Latest weather observations for QLD | Other Formats
Station Details ID: 200783 Name: FLINDERS REEF Lat: -17.72 Lon: 148.45 Height: 2.6 m
Data from the previous 72 hours. | See also: Recent months at Flinders Reef
Date/Time
EST
Temp
°C
App
Temp
°C
Dew
Point
°C
Rel
Hum
%
Delta-T
°C
Wind Press
QNH
hPa
Press
MSL
hPa
Rain since
9am
mm
Dir  Spd
km/h
Gust
km/h
Spd
kts
Gust
kts
26/08:00pm 26.3 - - - - CALM 0 4 0 2 1013.0 - -
26/07:30pm 26.3 - - - - CALM 0 4 0 2 1012.8 - -
26/07:24pm 26.3 - - - - CALM 0 - 0 - - 1012.5 -
26/07:00pm 26.3 - - - - CALM 0 6 0 3 1012.5 - -
26/06:30pm 26.3 - - - - ENE 2 7 1 4 1012.2 - -
26/06:24pm 26.3 - - - - CALM 0 - 0 - - 1011.9 -
26/06:00pm 26.5 - - - - NNE 2 7 1 4 1011.7 - -
26/05:30pm 26.8 - - - - N 2 11 1 6 1011.6 - -
26/05:24pm 27.0 - - - - CALM 0 - 0 - - 1011.4 -
26/05:00pm 27.2 - - - - N 2 9 1 5 1011.3 - -
26/04:30pm 28.7 - - - - CALM 0 0 0 0 1011.0 - -
26/04:24pm 28.5 - - - - CALM 0 - 0 - - 1010.9 -
26/04:00pm 28.0 - - - - CALM 0 0 0 0 1010.8 - -
26/03:30pm 26.9 - - - - CALM 0 0 0 0 1010.8 - -
26/03:24pm 26.8 - - - - CALM 0 - 0 - - 1010.7 -
26/03:00pm 27.2 - - - - NW 4 7 2 4 1010.8 - -
26/02:30pm 27.3 - - - - CALM 0 0 0 0 1010.9 - -
26/02:24pm 27.7 - - - - SSW 2 - 1 - - 1010.8 -
26/02:00pm 26.7 - - - - SSW 7 9 4 5 1011.0 - -
26/01:30pm 26.6 - - - - SSW 9 13 5 7 1011.3 - -
26/01:24pm 26.5 - - - - SSW 11 - 6 - - 1011.1 -
26/01:00pm 26.7 - - - - SW 7 9 4 5 1011.5 - -
26/12:30pm 27.1 - - - - SW 7 11 4 6 1011.8 - -
26/12:24pm 26.8 - - - - SSW 7 - 4 - - 1011.7 -
26/12:00pm 26.9 - - - - S 6 9 3 5 1012.2 - -
26/11:30am 27.0 - - - - S 6 7 3 4 1012.7 - -
26/11:24am 27.2 - - - - S 6 - 3 - - 1012.6 -
26/11:00am 27.1 - - - - S 6 9 3 5 1013.1 - -
26/10:30am 27.2 - - - - CALM 0 0 0 0 1013.3 - -
26/10:24am 27.2 - - - - CALM 0 - 0 - - 1013.1 -
26/10:00am 26.4 - - - - SSW 6 9 3 5 1013.3 - -
26/09:30am 27.1 - - - - NW 6 7 3 4 1013.5 - -
26/09:24am 26.8 - - - - NW 6 - 3 - - 1013.5 -
26/09:00am 26.9 - - - - NW 6 7 3 4 1013.7 - -
26/08:30am 26.4 - - - - NW 6 7 3 4 1013.7 - -
26/08:24am 26.3 - - - - NW 6 - 3 - - 1013.6 -
26/08:00am 26.1 - - - - NW 7 7 4 4 1013.6 - -
26/07:30am 26.0 - - - - WNW 7 9 4 5 1013.3 - -
26/07:24am 25.7 - - - - WSW 7 - 4 - - 1013.2 -
26/07:00am 25.5 - - - - WSW 7 9 4 5 1013.0 - -
26/06:30am 25.6 - - - - WSW 7 7 4 4 1012.8 - -
26/06:24am 25.5 - - - - WSW 7 - 4 - - 1012.6 -
26/06:00am 25.5 - - - - WSW 9 11 5 6 1012.4 - -
26/05:30am 25.4 - - - - CALM 0 6 0 3 1012.1 - -
26/05:24am 25.4 - - - - CALM 0 - 0 - - 1012.0 -
26/05:00am 25.3 - - - - CALM 0 6 0 3 1011.9 - -
26/04:30am 25.4 - - - - CALM 0 4 0 2 1011.7 - -
26/04:24am 25.4 - - - - CALM 0 - 0 - - 1011.5 -
26/04:00am 25.4 - - - - CALM 0 2 0 1 1011.3 - -
26/03:30am 25.3 - - - - CALM 0 2 0 1 1011.1 - -
26/03:24am 25.2 - - - - CALM 0 - 0 - - 1011.1 -
26/03:00am 25.3 - - - - CALM 0 7 0 4 1011.3 - -
26/02:30am 25.3 - - - - CALM 0 9 0 5 1011.3 - -
26/02:24am 25.5 - - - - CALM 0 - 0 - - 1011.2 -
26/02:00am 25.5 - - - - CALM 0 4 0 2 1011.2 - -
26/01:30am 25.4 - - - - N 2 6 1 3 1011.3 - -
26/01:24am 25.4 - - - - CALM 0 - 0 - - 1011.2 -
26/01:00am 25.5 - - - - NNE 2 6 1 3 1011.4 - -
26/12:30am 25.5 - - - - CALM 0 4 0 2 1011.6 - -
26/12:24am 25.5 - - - - N 2 - 1 - - 1011.6 -
26/12:00am 25.4 - - - - N 2 4 1 2 1012.0 - -
 
Date/Time
EST
Temp
°C
App
Temp
°C
Dew
Point
°C
Rel
Hum
%
Delta-T
°C
Wind Press
QNH
hPa
Press
MSL
hPa
Rain since
9am
mm
Dir  Spd
km/h
Gust
km/h
Spd
kts
Gust
kts
25/11:30pm 25.7 - - - - N 2 6 1 3 1012.3 - -
25/11:24pm 25.6 - - - - N 2 - 1 - - 1012.3 -
25/11:00pm 25.6 - - - - NNE 2 6 1 3 1012.4 - -
25/10:30pm 25.6 - - - - NNE 2 6 1 3 1012.3 - -
25/10:24pm 25.5 - - - - NNE 2 - 1 - - 1012.2 -
25/10:00pm 25.6 - - - - NNE 11 20 6 11 1012.3 - -
25/09:30pm 25.7 - - - - NNE 19 20 10 11 1012.1 - -
25/09:24pm 25.7 - - - - NNE 19 - 10 - - 1012.1 -
25/09:00pm 25.6 - - - - N 19 20 10 11 1012.1 - -
25/08:30pm 25.6 - - - - N 15 17 8 9 1012.0 - -
25/08:24pm 25.8 - - - - N 15 - 8 - - 1011.9 -
25/08:00pm 25.7 - - - - N 15 17 8 9 1011.7 - -
25/07:30pm 25.9 - - - - NNE 15 19 8 10 1011.3 - -
25/07:24pm 25.9 - - - - NNE 17 - 9 - - 1011.2 -
25/07:00pm 25.9 - - - - NNE 19 20 10 11 1011.0 - -
25/06:30pm 25.9 - - - - N 19 20 10 11 1010.8 - -
25/06:24pm 25.9 - - - - N 19 - 10 - - 1010.6 -
25/06:00pm 26.0 - - - - N 19 20 10 11 1010.4 - -
25/05:30pm 26.3 - - - - N 19 20 10 11 1010.0 - -
25/05:24pm 26.3 - - - - N 20 - 11 - - 1009.9 -
25/05:00pm 26.3 - - - - N 22 24 12 13 1009.7 - -
25/04:30pm 26.8 - - - - N 22 26 12 14 1009.5 - -
25/04:24pm 26.8 - - - - N 22 - 12 - - 1009.4 -
25/04:00pm 26.7 - - - - N 17 20 9 11 1009.5 - -
25/03:30pm 26.8 - - - - N 13 15 7 8 1009.7 - -
25/03:24pm 26.9 - - - - N 13 - 7 - - 1009.6 -
25/03:00pm 26.9 - - - - N 15 17 8 9 1009.8 - -
25/02:30pm 26.8 - - - - N 15 15 8 8 1010.1 - -
25/02:24pm 26.4 - - - - N 15 - 8 - - 1010.1 -
25/02:00pm 26.9 - - - - N 13 15 7 8 1010.3 - -
25/01:30pm 26.6 - - - - N 15 19 8 10 1010.7 - -
25/01:24pm 26.7 - - - - NW 15 - 8 - - 1010.6 -
25/01:00pm 27.1 - - - - N 15 19 8 10 1010.9 - -
25/12:30pm 26.9 - - - - N 17 20 9 11 1011.0 - -
25/12:24pm 26.9 - - - - N 17 - 9 - - 1011.0 -
25/12:00pm 26.9 - - - - N 17 20 9 11 1011.4 - -
25/11:30am 27.3 - - - - N 13 15 7 8 1012.1 - -
25/11:24am 27.0 - - - - N 11 - 6 - - 1012.2 -
25/11:00am 26.9 - - - - N 13 15 7 8 1012.6 - -
25/10:30am 26.5 - - - - N 13 17 7 9 1012.8 - -
25/10:24am 26.6 - - - - N 13 - 7 - - 1012.8 -
25/10:00am 26.8 - - - - N 17 20 9 11 1012.9 - -
25/09:30am 26.7 - - - - N 15 17 8 9 1012.8 - -
25/09:24am 26.8 - - - - NNE 13 - 7 - - 1012.8 -
25/09:00am 26.9 - - - - N 15 17 8 9 1013.0 - -
25/08:30am 26.2 - - - - NNE 13 13 7 7 1013.1 - -
25/08:24am 26.4 - - - - ESE 11 - 6 - - 1013.0 -
25/08:00am 27.0 - - - - S 6 7 3 4 1013.0 - -
25/07:30am 26.9 - - - - S 6 7 3 4 1012.7 - -
25/07:24am 26.5 - - - - ESE 7 - 4 - - 1012.5 -
25/07:00am 25.8 - - - - NNE 7 9 4 5 1012.3 - -
25/06:30am 25.2 - - - - N 9 11 5 6 1011.8 - -
25/06:24am 25.1 - - - - N 9 - 5 - - 1011.7 -
25/06:00am 25.0 - - - - N 11 13 6 7 1011.4 - -
25/05:30am 24.9 - - - - N 9 11 5 6 1010.9 - -
25/05:24am 25.0 - - - - NNE 7 - 4 - - 1010.7 -
25/05:00am 24.9 - - - - N 9 11 5 6 1010.5 - -
25/04:30am 25.0 - - - - N 9 15 5 8 1010.1 - -
25/04:24am 25.0 - - - - N 13 - 7 - - 1009.9 -
25/04:00am 25.0 - - - - N 20 22 11 12 1009.4 - -
25/03:30am 25.0 - - - - N 20 24 11 13 1009.3 - -
25/03:24am 25.0 - - - - N 22 - 12 - - 1009.1 -
25/03:00am 25.1 - - - - N 20 24 11 13 1009.2 - -
25/02:30am 25.1 - - - - N 20 22 11 12 1009.4 - -
25/02:24am 25.0 - - - - N 20 - 11 - - 1009.4 -
25/02:00am 25.2 - - - - N 22 24 12 13 1009.6 - -
25/01:30am 25.0 - - - - N 22 28 12 15 1009.8 - -
25/01:24am 25.2 - - - - N 20 - 11 - - 1009.8 -
25/01:00am 25.1 - - - - N 22 26 12 14 1010.1 - -
25/12:30am 25.4 - - - - N 24 28 13 15 1010.5 - -
25/12:24am 25.2 - - - - N 24 - 13 - - 1010.4 -
25/12:00am 25.5 - - - - N 24 28 13 15 1010.8 - -
 
Date/Time
EST
Temp
°C
App
Temp
°C
Dew
Point
°C
Rel
Hum
%
Delta-T
°C
Wind Press
QNH
hPa
Press
MSL
hPa
Rain since
9am
mm
Dir  Spd
km/h
Gust
km/h
Spd
kts
Gust
kts
24/11:30pm 25.3 - - - - N 26 28 14 15 1011.1 - -
24/11:24pm 25.3 - - - - N 26 - 14 - - 1011.1 -
24/11:00pm 25.4 - - - - N 24 28 13 15 1011.3 - -
24/10:30pm 25.5 - - - - N 28 32 15 17 1011.3 - -
24/10:24pm 25.7 - - - - N 28 - 15 - - 1011.2 -
24/10:00pm 25.6 - - - - N 26 30 14 16 1011.5 - -
24/09:30pm 25.5 - - - - NNE 28 32 15 17 1011.5 - -
24/09:24pm 25.5 - - - - NNE 28 - 15 - - 1011.4 -
24/09:00pm 25.6 - - - - NNE 26 30 14 16 1011.5 - -
24/08:30pm 25.4 - - - - NNE 26 32 14 17 1011.3 - -
24/08:24pm 25.6 - - - - NNE 26 - 14 - - 1011.1 -
24/08:00pm 25.5 - - - - NNE 26 30 14 16 1011.0 - -
24/07:30pm 25.7 - - - - NNE 22 24 12 13 1011.0 - -
24/07:24pm 25.7 - - - - NNE 22 - 12 - - 1010.9 -
24/07:00pm 25.7 - - - - NNE 20 22 11 12 1010.7 - -
24/06:30pm 25.6 - - - - NNE 20 24 11 13 1010.4 - -
24/06:24pm 25.8 - - - - NNE 20 - 11 - - 1010.2 -
24/06:00pm 25.8 - - - - NNE 20 22 11 12 1010.1 - -
24/05:30pm 26.1 - - - - NNE 19 22 10 12 1009.9 - -
24/05:24pm 26.0 - - - - NNE 19 - 10 - - 1009.8 -
24/05:00pm 26.2 - - - - NNE 17 20 9 11 1009.9 - -
24/04:30pm 26.1 - - - - NNE 17 20 9 11 1009.7 - -
24/04:24pm 26.1 - - - - NNE 17 - 9 - - 1009.7 -
24/04:00pm 26.0 - - - - NNE 15 19 8 10 1009.7 - -
24/03:30pm 26.3 - - - - NNE 13 15 7 8 1009.7 - -
24/03:24pm 26.2 - - - - NNE 13 - 7 - - 1009.7 -
24/03:00pm 26.1 - - - - NE 13 15 7 8 1009.9 - -
24/02:30pm 26.1 - - - - NE 11 13 6 7 1010.3 - -
24/02:24pm 25.8 - - - - NE 11 - 6 - - 1010.3 -
24/02:00pm 26.1 - - - - NE 13 15 7 8 1010.8 - -
24/01:30pm 26.3 - - - - NNE 13 15 7 8 1011.1 - -
24/01:24pm 26.3 - - - - NNE 13 - 7 - - 1011.1 -
24/01:00pm 25.9 - - - - NE 11 13 6 7 1011.6 - -
24/12:30pm 25.9 - - - - NNE 13 17 7 9 1012.0 - -
24/12:24pm 25.8 - - - - NNE 15 - 8 - - 1011.9 -
24/12:00pm 25.9 - - - - NNE 15 17 8 9 1012.3 - -
24/11:30am 26.2 - - - - NNE 17 19 9 10 1012.7 - -
24/11:24am 25.9 - - - - NNE 17 - 9 - - 1012.7 -
24/11:00am 26.0 - - - - NE 17 19 9 10 1013.0 - -
24/10:30am 25.8 - - - - NE 17 19 9 10 1013.3 - -
24/10:24am 26.0 - - - - NE 17 - 9 - - 1013.2 -
24/10:00am 25.9 - - - - NE 15 17 8 9 1013.6 - -
24/09:30am 26.1 - - - - NE 13 15 7 8 1013.8 - -
24/09:24am 26.0 - - - - NE 13 - 7 - - 1013.6 -
24/09:00am 26.1 - - - - NNE 13 15 7 8 1013.7 - -
24/08:30am 26.1 - - - - NNE 15 15 8 8 1013.6 - -
24/08:24am 26.2 - - - - NNE 13 - 7 - - 1013.4 -
24/08:00am 25.8 - - - - NNE 17 19 9 10 1013.3 - -
24/07:30am 25.6 - - - - NNE 15 19 8 10 1012.8 - -
24/07:24am 25.5 - - - - NNE 15 - 8 - - 1012.6 -
24/07:00am 25.5 - - - - NE 15 17 8 9 1012.3 - -
24/06:30am 25.2 - - - - NNE 15 17 8 9 1012.0 - -
24/06:24am 25.0 - - - - NNE 13 - 7 - - 1011.8 -
24/06:00am 25.2 - - - - NNE 15 17 8 9 1011.6 - -
24/05:30am 24.9 - - - - NNE 17 20 9 11 1011.0 - -
24/05:24am 25.1 - - - - NE 17 - 9 - - 1010.8 -
24/05:00am 25.1 - - - - NNE 17 20 9 11 1010.6 - -
24/04:30am 25.0 - - - - NNE 19 22 10 12 1010.3 - -
24/04:24am 25.3 - - - - NNE 20 - 11 - - 1010.2 -
24/04:00am 25.1 - - - - NE 19 22 10 12 1010.3 - -
24/03:30am 25.0 - - - - NE 20 24 11 13 1010.3 - -
24/03:24am 25.0 - - - - NE 20 - 11 - - 1010.2 -
24/03:00am 25.2 - - - - NE 22 26 12 14 1010.4 - -
24/02:30am 25.0 - - - - NE 22 28 12 15 1010.6 - -
24/02:24am 25.3 - - - - NNE 22 - 12 - - 1010.5 -
24/02:00am 25.2 - - - - NE 22 26 12 14 1010.7 - -
24/01:30am 25.1 - - - - NE 22 26 12 14 1010.8 - -
24/01:24am 25.2 - - - - NE 22 - 12 - - 1010.7 -
24/01:00am 25.2 - - - - NE 22 26 12 14 1010.9 - -
24/12:30am 25.1 - - - - NE 22 28 12 15 1011.2 - -
24/12:24am 25.2 - - - - NE 22 - 12 - - 1011.1 -
24/12:00am 25.3 - - - - NE 24 26 13 14 1011.3 - -
 
Date/Time
EST
Temp
°C
App
Temp
°C
Dew
Point
°C
Rel
Hum
%
Delta-T
°C
Wind Press
QNH
hPa
Press
MSL
hPa
Rain since
9am
mm
Dir  Spd
km/h
Gust
km/h
Spd
kts
Gust
kts
23/11:30pm 25.2 - - - - NE 24 28 13 15 1011.5 - -
23/11:24pm 25.2 - - - - NE 22 - 12 - - 1011.4 -
23/11:00pm 25.3 - - - - NE 24 30 13 16 1011.6 - -
23/10:30pm 25.3 - - - - NE 24 28 13 15 1011.8 - -
23/10:24pm 25.4 - - - - NE 24 - 13 - - 1011.8 -
23/10:00pm 25.2 - - - - NE 22 28 12 15 1011.9 - -
23/09:30pm 25.4 - - - - ENE 20 24 11 13 1012.1 - -
23/09:24pm 25.4 - - - - ENE 22 - 12 - - 1011.9 -
23/09:00pm 25.3 - - - - ENE 19 22 10 12 1011.9 - -
23/08:30pm 25.3 - - - - ENE 22 24 12 13 1011.7 - -
23/08:24pm 25.3 - - - - ENE 20 - 11 - - 1011.5 -

Other Formats:

Comma delimited format used in spreadsheet applications
http://www.bom.gov.au/fwo/IDQ60801/IDQ60801.94290.axf

JavaScript Object Notation format (JSON) in row-major order
http://www.bom.gov.au/fwo/IDQ60801/IDQ60801.94290.json